createdAt,value
2022-09-13T00:00:00.235Z,14.00
2022-09-13T00:02:01.901Z,14.00
2022-09-13T00:04:04.350Z,14.00
2022-09-13T00:06:13.085Z,14.00
2022-09-13T00:08:14.991Z,13.90
2022-09-13T00:10:16.869Z,13.90
2022-09-13T00:12:18.406Z,13.90
2022-09-13T00:14:20.033Z,13.90
2022-09-13T00:16:22.837Z,13.90
2022-09-13T00:18:25.078Z,13.90
2022-09-13T00:20:27.078Z,13.90
2022-09-13T00:22:28.656Z,13.90
2022-09-13T00:24:30.248Z,13.80
2022-09-13T00:26:31.809Z,13.80
2022-09-13T00:28:33.509Z,13.90
2022-09-13T00:30:35.391Z,13.90
2022-09-13T00:32:37.350Z,13.80
2022-09-13T00:34:39.191Z,13.70
2022-09-13T00:36:40.750Z,13.70
2022-09-13T00:38:42.795Z,13.70
2022-09-13T00:40:44.447Z,13.70
2022-09-13T00:42:46.025Z,13.70
2022-09-13T00:44:47.592Z,13.70
2022-09-13T00:46:50.099Z,13.70
2022-09-13T00:48:54.271Z,13.70
2022-09-13T00:50:56.048Z,13.80
2022-09-13T00:53:11.289Z,13.60
2022-09-13T00:55:25.803Z,13.60
2022-09-13T00:57:29.016Z,13.70
2022-09-13T00:59:33.907Z,13.60
2022-09-13T01:01:44.354Z,13.60
2022-09-13T01:03:47.076Z,13.50
2022-09-13T01:05:54.619Z,13.40
2022-09-13T01:07:56.540Z,13.40
2022-09-13T01:09:58.226Z,13.50
2022-09-13T01:12:04.331Z,13.50
2022-09-13T01:14:07.387Z,13.50
2022-09-13T01:16:09.018Z,13.60
2022-09-13T01:18:11.297Z,13.60
2022-09-13T01:20:13.666Z,13.70
2022-09-13T01:22:21.561Z,13.60
2022-09-13T01:24:26.211Z,13.60
2022-09-13T01:26:30.886Z,13.60
2022-09-13T01:28:51.361Z,13.60
2022-09-13T01:30:59.129Z,13.50
2022-09-13T01:33:01.606Z,13.60
2022-09-13T01:35:09.198Z,13.50
2022-09-13T01:37:10.763Z,13.50
2022-09-13T01:39:21.711Z,13.40
2022-09-13T01:41:32.751Z,13.40
2022-09-13T01:43:40.213Z,13.30
2022-09-13T01:45:48.908Z,13.30
2022-09-13T01:47:52.661Z,13.20
2022-09-13T01:50:03.317Z,13.30
2022-09-13T01:52:07.869Z,13.20
2022-09-13T01:54:13.472Z,13.20
2022-09-13T01:56:22.699Z,13.20
2022-09-13T01:58:26.897Z,13.20
2022-09-13T02:00:29.251Z,13.10
2022-09-13T02:02:50.836Z,13.10
2022-09-13T02:04:54.974Z,13.10
2022-09-13T02:07:04.822Z,13.10
2022-09-13T02:09:11.451Z,13.10
2022-09-13T02:11:14.131Z,13.10
2022-09-13T02:13:18.049Z,13.10
2022-09-13T02:15:39.936Z,13.00
2022-09-13T02:17:43.672Z,12.90
2022-09-13T02:19:59.374Z,12.90
2022-09-13T02:22:02.062Z,12.90
2022-09-13T02:24:06.473Z,12.90
2022-09-13T02:26:09.280Z,12.90
2022-09-13T02:28:13.052Z,12.90
2022-09-13T02:30:15.717Z,12.80
2022-09-13T02:32:22.447Z,12.80
2022-09-13T02:34:31.178Z,12.80
2022-09-13T02:36:35.308Z,12.80
2022-09-13T02:38:51.985Z,12.80
2022-09-13T02:40:58.828Z,12.90
2022-09-13T02:43:15.408Z,12.80
2022-09-13T02:45:17.679Z,12.80
2022-09-13T02:47:31.375Z,12.80
2022-09-13T02:49:36.024Z,12.90
2022-09-13T02:51:59.584Z,12.80
2022-09-13T02:54:21.432Z,12.80
2022-09-13T02:56:42.035Z,12.90
2022-09-13T02:58:46.671Z,12.90
2022-09-13T03:00:48.407Z,12.80
2022-09-13T03:02:51.278Z,12.80
2022-09-13T03:04:53.019Z,12.70
2022-09-13T03:06:54.758Z,12.70
2022-09-13T03:08:57.147Z,12.70
2022-09-13T03:10:58.734Z,12.70
2022-09-13T03:13:23.772Z,12.70
2022-09-13T03:15:45.029Z,12.70
2022-09-13T03:17:54.063Z,12.70
2022-09-13T03:20:14.176Z,12.70
2022-09-13T03:22:24.965Z,12.70
2022-09-13T03:24:39.003Z,12.70
2022-09-13T03:26:51.174Z,12.60
2022-09-13T03:28:52.722Z,12.60
2022-09-13T03:30:58.772Z,12.60
2022-09-13T03:33:26.628Z,12.60
2022-09-13T03:35:30.673Z,12.60
2022-09-13T03:37:53.523Z,12.50
2022-09-13T03:39:58.394Z,12.60
2022-09-13T03:42:07.349Z,12.60
2022-09-13T03:44:12.983Z,12.60
2022-09-13T03:46:21.202Z,12.50
2022-09-13T03:48:23.528Z,12.50
2022-09-13T03:50:26.349Z,12.50
2022-09-13T03:52:28.055Z,12.50
2022-09-13T03:54:32.268Z,12.40
2022-09-13T03:56:34.067Z,12.30
2022-09-13T03:58:35.796Z,12.30
2022-09-13T04:00:38.477Z,12.40
2022-09-13T04:02:40.093Z,12.40
2022-09-13T04:04:42.579Z,12.40
2022-09-13T04:06:44.146Z,12.30
2022-09-13T04:08:46.008Z,12.30
2022-09-13T04:10:50.049Z,12.30
2022-09-13T04:12:51.946Z,12.20
2022-09-13T04:14:53.509Z,12.20
2022-09-13T04:16:56.007Z,12.30
2022-09-13T04:18:57.691Z,12.30
2022-09-13T04:21:00.001Z,12.30
2022-09-13T04:23:01.679Z,12.20
2022-09-13T04:25:03.438Z,12.20
2022-09-13T04:27:05.371Z,12.20
2022-09-13T04:29:06.996Z,12.20
2022-09-13T04:31:08.758Z,12.20
2022-09-13T04:33:10.490Z,12.20
2022-09-13T04:35:12.108Z,12.20
2022-09-13T04:37:13.669Z,12.20
2022-09-13T04:39:15.357Z,12.20
2022-09-13T04:41:17.536Z,12.30
2022-09-13T04:43:19.103Z,12.30
2022-09-13T04:45:20.695Z,12.20
2022-09-13T04:47:23.099Z,12.30
2022-09-13T04:49:26.436Z,12.30
2022-09-13T04:51:28.073Z,12.30
2022-09-13T04:53:29.639Z,12.40
2022-09-13T04:55:31.221Z,12.40
2022-09-13T04:57:32.800Z,12.50
2022-09-13T04:59:34.418Z,12.50
2022-09-13T05:01:36.213Z,12.60
2022-09-13T05:03:37.984Z,12.60
2022-09-13T05:05:39.541Z,12.60
2022-09-13T05:07:41.133Z,12.60
2022-09-13T05:09:42.884Z,12.60
2022-09-13T05:11:44.461Z,12.70
2022-09-13T05:13:52.820Z,12.80
2022-09-13T05:15:55.042Z,12.80
2022-09-13T05:17:56.667Z,12.80
2022-09-13T05:19:58.550Z,12.80
2022-09-13T05:22:00.234Z,12.80
2022-09-13T05:24:01.932Z,12.80
2022-09-13T05:26:04.805Z,12.80
2022-09-13T05:28:06.363Z,12.80
2022-09-13T05:30:08.347Z,12.80
2022-09-13T05:32:09.924Z,12.80
2022-09-13T05:34:13.189Z,12.80
2022-09-13T05:36:15.120Z,12.80
2022-09-13T05:38:16.739Z,12.80
2022-09-13T05:40:18.512Z,12.80
2022-09-13T05:42:20.324Z,12.80
2022-09-13T05:44:21.973Z,12.80
2022-09-13T05:46:23.619Z,12.80
2022-09-13T05:48:25.233Z,12.80
2022-09-13T05:50:54.295Z,12.80
2022-09-13T05:52:52.608Z,12.80
2022-09-13T05:54:54.227Z,12.90
2022-09-13T05:56:57.505Z,12.90
2022-09-13T05:58:59.234Z,12.90
2022-09-13T06:01:00.849Z,12.90
2022-09-13T06:03:02.439Z,13.00
2022-09-13T06:05:04.190Z,13.10
2022-09-13T06:07:05.796Z,13.10
2022-09-13T06:09:08.663Z,13.10
2022-09-13T06:11:11.605Z,13.20
2022-09-13T06:13:13.358Z,13.20
2022-09-13T06:15:15.548Z,13.40
2022-09-13T06:17:17.245Z,13.50
2022-09-13T06:19:19.179Z,13.60
2022-09-13T06:21:25.743Z,13.70
2022-09-13T06:23:30.863Z,13.70
2022-09-13T06:25:33.804Z,13.80
2022-09-13T06:27:35.414Z,13.90
2022-09-13T06:29:37.277Z,13.90
2022-09-13T06:31:43.727Z,13.90
2022-09-13T06:33:45.428Z,13.90
2022-09-13T06:35:47.031Z,13.80
2022-09-13T06:37:48.634Z,13.80
2022-09-13T06:39:50.294Z,13.80
2022-09-13T06:41:51.966Z,13.80
2022-09-13T06:44:00.059Z,13.80
2022-09-13T06:46:03.245Z,13.80
2022-09-13T06:48:04.933Z,13.70
2022-09-13T06:50:07.716Z,13.80
2022-09-13T06:52:09.310Z,13.80
2022-09-13T06:54:10.918Z,13.90
2022-09-13T06:56:14.196Z,13.90
2022-09-13T06:58:15.822Z,13.90
2022-09-13T07:00:17.490Z,14.00
2022-09-13T07:02:19.236Z,14.10
2022-09-13T07:04:20.900Z,14.10
2022-09-13T07:06:27.183Z,14.20
2022-09-13T07:08:28.808Z,14.30
2022-09-13T07:10:32.806Z,14.30
2022-09-13T07:12:34.406Z,14.40
2022-09-13T07:14:35.987Z,14.40
2022-09-13T07:16:38.080Z,14.50
2022-09-13T07:18:39.757Z,14.60
2022-09-13T07:20:41.339Z,14.60
2022-09-13T07:22:42.918Z,14.70
2022-09-13T07:24:44.843Z,14.70
2022-09-13T07:26:46.819Z,14.80
2022-09-13T07:28:50.239Z,14.80
2022-09-13T07:30:51.952Z,14.90
2022-09-13T07:32:53.555Z,14.90
2022-09-13T07:34:55.126Z,14.90
2022-09-13T07:36:56.779Z,14.90
2022-09-13T07:38:58.620Z,15.00
2022-09-13T07:41:00.780Z,15.10
2022-09-13T07:43:02.517Z,15.10
2022-09-13T07:45:04.173Z,15.20
2022-09-13T07:47:05.872Z,15.30
2022-09-13T07:49:07.744Z,15.30
2022-09-13T07:51:10.315Z,15.40
2022-09-13T07:53:11.894Z,15.40
2022-09-13T07:55:13.482Z,15.50
2022-09-13T07:57:15.042Z,15.50
2022-09-13T07:59:17.065Z,15.50
2022-09-13T08:01:45.108Z,15.60
2022-09-13T08:03:55.941Z,15.70
2022-09-13T08:05:57.565Z,15.80
2022-09-13T08:07:59.322Z,16.00
2022-09-13T08:10:00.985Z,16.10
2022-09-13T08:12:02.775Z,16.20
2022-09-13T08:14:05.308Z,16.30
2022-09-13T08:16:07.125Z,16.50
2022-09-13T08:18:09.489Z,16.70
2022-09-13T08:20:11.186Z,16.80
2022-09-13T08:22:12.823Z,17.00
2022-09-13T08:24:19.080Z,17.20
2022-09-13T08:26:20.658Z,17.10
2022-09-13T08:28:27.346Z,17.20
2022-09-13T08:30:33.142Z,17.30
2022-09-13T08:32:34.779Z,17.40
2022-09-13T08:34:36.437Z,17.50
2022-09-13T08:36:38.035Z,17.50
2022-09-13T08:38:39.629Z,17.50
2022-09-13T08:40:43.124Z,17.60
2022-09-13T08:43:00.079Z,17.60
2022-09-13T08:45:01.803Z,17.60
2022-09-13T08:47:06.432Z,17.60
2022-09-13T08:49:31.116Z,17.60
2022-09-13T08:51:44.865Z,17.80
2022-09-13T08:53:48.705Z,18.10
2022-09-13T08:56:03.561Z,18.20
2022-09-13T08:58:20.450Z,18.30
2022-09-13T09:00:29.708Z,18.60
2022-09-13T09:02:40.170Z,18.90
2022-09-13T09:04:52.862Z,19.20
2022-09-13T09:07:11.935Z,19.40
2022-09-13T09:09:16.215Z,19.50
2022-09-13T09:11:38.089Z,19.60
2022-09-13T09:14:03.296Z,19.70
2022-09-13T09:16:27.077Z,19.80
2022-09-13T09:18:39.648Z,19.80
2022-09-13T09:20:42.611Z,19.80
2022-09-13T09:22:44.889Z,20.10
2022-09-13T09:24:48.813Z,20.40
2022-09-13T09:26:50.488Z,20.60
2022-09-13T09:28:54.888Z,20.70
2022-09-13T09:30:56.551Z,20.90
2022-09-13T09:32:58.201Z,20.80
2022-09-13T09:35:02.624Z,20.80
2022-09-13T09:37:08.105Z,21.00
2022-09-13T09:39:16.131Z,21.00
2022-09-13T09:41:22.677Z,21.00
2022-09-13T09:43:27.058Z,21.30
2022-09-13T09:45:33.408Z,21.50
2022-09-13T09:47:53.510Z,21.40
2022-09-13T09:50:10.111Z,21.70
2022-09-13T09:52:14.758Z,21.90
2022-09-13T09:54:16.755Z,22.30
2022-09-13T09:56:23.906Z,22.50
2022-09-13T09:58:39.464Z,22.40
2022-09-13T10:00:51.609Z,22.50
2022-09-13T10:02:54.814Z,22.50
2022-09-13T10:04:57.379Z,22.60
2022-09-13T10:07:22.777Z,22.50
2022-09-13T10:09:24.307Z,22.60
2022-09-13T10:11:58.407Z,22.60
2022-09-13T10:14:01.503Z,22.70
2022-09-13T10:16:04.841Z,22.70
2022-09-13T10:18:40.064Z,22.90
2022-09-13T10:20:36.062Z,23.00
2022-09-13T10:22:38.000Z,23.30
2022-09-13T10:24:40.492Z,23.20
2022-09-13T10:26:42.117Z,23.10
2022-09-13T10:29:03.672Z,23.10
2022-09-13T10:31:12.755Z,23.20
2022-09-13T10:33:36.742Z,23.80
2022-09-13T10:35:38.562Z,23.90
2022-09-13T10:37:42.302Z,24.30
2022-09-13T10:39:50.006Z,24.40
2022-09-13T10:41:53.907Z,24.50
2022-09-13T10:44:05.536Z,24.80
2022-09-13T10:46:20.750Z,25.00
2022-09-13T10:48:22.744Z,25.00
2022-09-13T10:50:30.754Z,25.50
2022-09-13T10:52:36.463Z,25.80
2022-09-13T10:54:38.141Z,25.80
2022-09-13T10:56:39.741Z,26.00
2022-09-13T10:58:43.112Z,25.50
2022-09-13T11:00:50.728Z,25.50
2022-09-13T11:03:12.609Z,25.90
2022-09-13T11:05:26.571Z,26.20
2022-09-13T11:07:42.418Z,26.80
2022-09-13T11:09:50.209Z,27.20
2022-09-13T11:12:10.413Z,27.40
2022-09-13T11:14:18.221Z,27.40
2022-09-13T11:16:19.980Z,27.60
2022-09-13T11:18:58.771Z,28.30
2022-09-13T11:21:22.016Z,29.50
2022-09-13T11:23:41.198Z,31.00
2022-09-13T11:26:05.836Z,30.80
2022-09-13T11:28:11.035Z,29.60
2022-09-13T11:30:19.597Z,28.60
2022-09-13T11:32:27.196Z,27.60
2022-09-13T11:34:49.349Z,27.30
2022-09-13T11:36:53.779Z,27.40
2022-09-13T11:39:03.128Z,27.40
2022-09-13T11:41:19.925Z,27.90
2022-09-13T11:43:21.507Z,29.80
2022-09-13T11:45:23.156Z,31.60
2022-09-13T11:47:43.471Z,32.70
2022-09-13T11:50:00.437Z,32.90
2022-09-13T11:52:12.030Z,33.10
2022-09-13T11:54:13.664Z,31.80
2022-09-13T11:56:18.369Z,30.30
2022-09-13T11:58:24.578Z,29.70
2022-09-13T12:00:31.909Z,30.10
2022-09-13T12:02:43.485Z,30.50
2022-09-13T12:05:17.996Z,31.40
2022-09-13T12:07:23.599Z,32.00
2022-09-13T12:09:29.483Z,31.20
2022-09-13T12:11:35.392Z,31.60
2022-09-13T12:13:43.009Z,32.30
2022-09-13T12:15:46.492Z,33.30
2022-09-13T12:18:10.572Z,33.70
2022-09-13T12:20:32.489Z,33.30
2022-09-13T12:22:35.628Z,32.90
2022-09-13T12:24:42.336Z,31.80
2022-09-13T12:26:46.940Z,31.80
2022-09-13T12:28:52.780Z,31.90
2022-09-13T12:30:56.804Z,32.00
2022-09-13T12:32:59.194Z,31.50
2022-09-13T12:35:03.945Z,31.60
2022-09-13T12:37:08.957Z,31.60
2022-09-13T12:39:27.259Z,31.70
2022-09-13T12:41:41.225Z,31.00
2022-09-13T12:43:46.021Z,30.60
2022-09-13T12:45:59.851Z,31.10
2022-09-13T12:48:20.108Z,31.80
2022-09-13T12:50:44.578Z,31.80
2022-09-13T12:52:46.359Z,32.80
2022-09-13T12:54:57.871Z,32.80
2022-09-13T12:57:19.984Z,32.90
2022-09-13T12:59:21.638Z,33.30
2022-09-13T13:01:24.501Z,33.40
2022-09-13T13:03:29.537Z,33.60
2022-09-13T13:05:33.193Z,33.60
2022-09-13T13:07:36.436Z,34.20
2022-09-13T13:09:42.240Z,33.60
2022-09-13T13:11:45.917Z,33.00
2022-09-13T13:13:56.204Z,32.60
2022-09-13T13:15:59.835Z,32.80
2022-09-13T13:18:22.340Z,32.80
2022-09-13T13:20:40.810Z,33.10
2022-09-13T13:22:42.627Z,33.30
2022-09-13T13:24:47.927Z,33.70
2022-09-13T13:26:50.816Z,34.70
2022-09-13T13:29:11.578Z,34.10
2022-09-13T13:31:23.729Z,33.70
2022-09-13T13:33:27.308Z,35.30
2022-09-13T13:35:30.097Z,33.80
2022-09-13T13:37:34.028Z,34.40
2022-09-13T13:39:37.671Z,34.10
2022-09-13T13:41:55.446Z,33.80
2022-09-13T13:43:57.208Z,33.40
2022-09-13T13:46:18.737Z,32.50
2022-09-13T13:48:34.363Z,34.10
2022-09-13T13:50:56.049Z,33.80
2022-09-13T13:53:06.103Z,34.80
2022-09-13T13:55:16.824Z,36.00
2022-09-13T13:57:42.635Z,37.00
2022-09-13T13:59:44.277Z,37.80
2022-09-13T14:01:48.699Z,35.60
2022-09-13T14:04:03.277Z,33.80
2022-09-13T14:06:15.387Z,32.20
2022-09-13T14:08:32.178Z,31.30
2022-09-13T14:10:45.925Z,30.80
2022-09-13T14:13:06.390Z,30.50
2022-09-13T14:15:15.582Z,30.80
2022-09-13T14:17:36.081Z,30.70
2022-09-13T14:19:42.997Z,30.80
2022-09-13T14:21:45.031Z,31.00
2022-09-13T14:23:46.642Z,30.60
2022-09-13T14:25:53.891Z,30.40
2022-09-13T14:27:56.887Z,30.20
2022-09-13T14:30:00.420Z,29.80
2022-09-13T14:32:14.040Z,29.70
2022-09-13T14:34:21.693Z,29.70
2022-09-13T14:36:23.291Z,29.60
2022-09-13T14:38:30.864Z,29.70
2022-09-13T14:40:32.587Z,29.60
2022-09-13T14:42:38.671Z,29.70
2022-09-13T14:44:47.028Z,29.80
2022-09-13T14:46:51.865Z,30.00
2022-09-13T14:49:02.131Z,30.60
2022-09-13T14:51:07.399Z,31.00
2022-09-13T14:53:14.515Z,30.80
2022-09-13T14:55:18.381Z,30.60
2022-09-13T14:57:24.110Z,30.30
2022-09-13T14:59:25.681Z,30.00
2022-09-13T15:01:29.696Z,29.90
2022-09-13T15:03:31.717Z,29.70
2022-09-13T15:05:34.656Z,29.40
2022-09-13T15:07:37.402Z,29.20
2022-09-13T15:09:39.171Z,29.20
2022-09-13T15:11:56.609Z,29.20
2022-09-13T15:14:02.022Z,29.20
2022-09-13T15:16:23.644Z,29.20
2022-09-13T15:18:26.555Z,28.80
2022-09-13T15:20:45.171Z,28.40
2022-09-13T15:22:46.839Z,28.20
2022-09-13T15:24:50.574Z,28.20
2022-09-13T15:27:01.969Z,28.50
2022-09-13T15:29:05.410Z,29.20
2022-09-13T15:31:07.626Z,30.30
2022-09-13T15:33:12.028Z,31.30
2022-09-13T15:35:31.198Z,31.80
2022-09-13T15:37:37.896Z,32.00
2022-09-13T15:40:02.839Z,31.10
2022-09-13T15:42:04.680Z,30.20
2022-09-13T15:44:07.712Z,29.30
2022-09-13T15:46:14.268Z,28.80
2022-09-13T15:48:24.421Z,28.70
2022-09-13T15:50:31.075Z,28.30
2022-09-13T15:52:32.935Z,27.90
2022-09-13T15:54:36.446Z,27.70
2022-09-13T15:56:40.053Z,27.40
2022-09-13T15:58:41.797Z,27.20
2022-09-13T16:00:43.626Z,27.00
2022-09-13T16:02:45.739Z,26.80
2022-09-13T16:04:47.607Z,26.60
2022-09-13T16:06:49.215Z,26.50
2022-09-13T16:08:50.813Z,26.20
2022-09-13T16:10:52.482Z,26.10
2022-09-13T16:12:54.799Z,26.00
2022-09-13T16:14:56.419Z,25.80
2022-09-13T16:16:59.519Z,25.70
2022-09-13T16:19:01.132Z,25.70
2022-09-13T16:21:02.807Z,25.50
2022-09-13T16:23:04.405Z,25.50
2022-09-13T16:25:06.641Z,25.40
2022-09-13T16:27:09.539Z,25.40
2022-09-13T16:29:11.972Z,25.30
2022-09-13T16:31:16.502Z,25.20
2022-09-13T16:33:19.635Z,25.10
2022-09-13T16:35:21.244Z,24.90
2022-09-13T16:37:23.157Z,25.00
2022-09-13T16:39:24.839Z,25.00
2022-09-13T16:41:26.613Z,25.00
2022-09-13T16:43:28.175Z,25.00
2022-09-13T16:45:29.741Z,24.80
2022-09-13T16:47:31.341Z,24.70
2022-09-13T16:49:33.086Z,24.60
2022-09-13T16:51:35.120Z,24.50
2022-09-13T16:53:37.972Z,24.40
2022-09-13T16:55:39.580Z,24.40
2022-09-13T16:57:41.901Z,24.30
2022-09-13T16:59:43.594Z,24.20
2022-09-13T17:01:45.249Z,24.10
2022-09-13T17:03:48.501Z,24.00
2022-09-13T17:06:13.305Z,23.90
2022-09-13T17:08:15.212Z,23.90
2022-09-13T17:10:17.283Z,23.90
2022-09-13T17:12:18.912Z,23.80
2022-09-13T17:14:21.915Z,23.70
2022-09-13T17:16:25.683Z,23.70
2022-09-13T17:18:27.524Z,23.60
2022-09-13T17:20:29.093Z,23.60
2022-09-13T17:22:31.571Z,23.50
2022-09-13T17:24:33.289Z,23.40
2022-09-13T17:26:34.984Z,23.40
2022-09-13T17:28:36.863Z,23.30
2022-09-13T17:30:38.674Z,23.30
2022-09-13T17:32:40.343Z,23.20
2022-09-13T17:34:41.926Z,23.10
2022-09-13T17:36:43.573Z,23.10
2022-09-13T17:38:45.225Z,23.00
2022-09-13T17:40:46.983Z,22.90
2022-09-13T17:42:50.083Z,22.90
2022-09-13T17:44:51.694Z,22.90
2022-09-13T17:46:53.343Z,22.80
2022-09-13T17:48:55.727Z,22.80
2022-09-13T17:51:01.747Z,22.70
2022-09-13T17:53:04.806Z,22.70
2022-09-13T17:55:07.146Z,22.60
2022-09-13T17:57:11.730Z,22.60
2022-09-13T17:59:17.839Z,22.50
2022-09-13T18:01:19.770Z,22.40
2022-09-13T18:03:21.401Z,22.30
2022-09-13T18:05:23.933Z,22.30
2022-09-13T18:07:25.566Z,22.30
2022-09-13T18:09:27.388Z,22.20
2022-09-13T18:11:29.066Z,22.10
2022-09-13T18:13:30.720Z,22.10
2022-09-13T18:15:32.348Z,22.00
2022-09-13T18:17:34.066Z,21.90
2022-09-13T18:19:45.906Z,21.90
2022-09-13T18:21:48.278Z,21.80
2022-09-13T18:23:54.184Z,21.80
2022-09-13T18:26:02.577Z,21.70
2022-09-13T18:28:05.748Z,21.70
2022-09-13T18:30:07.692Z,21.60
2022-09-13T18:32:09.314Z,21.60
2022-09-13T18:34:12.603Z,21.50
2022-09-13T18:36:15.498Z,21.50
2022-09-13T18:38:17.071Z,21.40
2022-09-13T18:40:19.080Z,21.40
2022-09-13T18:42:20.763Z,21.40
2022-09-13T18:44:22.346Z,21.40
2022-09-13T18:46:25.635Z,21.40
2022-09-13T18:48:33.247Z,21.30
2022-09-13T18:50:34.879Z,21.30
2022-09-13T18:52:38.546Z,21.30
2022-09-13T18:54:40.161Z,21.30
2022-09-13T18:56:41.835Z,21.30
2022-09-13T18:58:43.907Z,21.20
2022-09-13T19:00:45.599Z,21.20
2022-09-13T19:03:10.796Z,21.20
2022-09-13T19:05:10.218Z,21.20
2022-09-13T19:07:11.850Z,21.10
2022-09-13T19:09:14.458Z,21.10
2022-09-13T19:11:42.244Z,21.10
2022-09-13T19:13:38.399Z,21.10
2022-09-13T19:15:40.068Z,21.10
2022-09-13T19:17:41.913Z,21.10
2022-09-13T19:19:43.532Z,21.10
2022-09-13T19:21:45.273Z,21.10
2022-09-13T19:23:59.052Z,21.10
2022-09-13T19:26:04.296Z,21.00
2022-09-13T19:28:06.551Z,21.10
2022-09-13T19:30:08.615Z,21.10
2022-09-13T19:32:10.197Z,21.00
2022-09-13T19:34:12.213Z,21.00
2022-09-13T19:36:18.215Z,21.00
2022-09-13T19:38:19.818Z,21.00
2022-09-13T19:40:23.040Z,21.00
2022-09-13T19:42:24.762Z,20.90
2022-09-13T19:44:26.588Z,20.90
2022-09-13T19:46:31.499Z,20.90
2022-09-13T19:48:39.554Z,20.90
2022-09-13T19:50:41.465Z,20.80
2022-09-13T19:52:43.763Z,20.90
2022-09-13T19:54:45.336Z,20.80
2022-09-13T19:56:47.012Z,20.80
2022-09-13T19:58:49.397Z,20.80
2022-09-13T20:00:51.123Z,20.80
2022-09-13T20:02:52.710Z,20.80
2022-09-13T20:04:54.314Z,20.80
2022-09-13T20:06:55.920Z,20.70
2022-09-13T20:08:58.441Z,20.70
2022-09-13T20:11:03.687Z,20.70
2022-09-13T20:13:05.274Z,20.60
2022-09-13T20:15:07.122Z,20.60
2022-09-13T20:17:08.779Z,20.60
2022-09-13T20:21:41.552Z,20.50
2022-09-13T20:23:43.275Z,20.40
2022-09-13T20:25:45.021Z,20.50
2022-09-13T20:27:46.610Z,20.40
2022-09-13T20:29:48.600Z,20.40
2022-09-13T20:31:50.245Z,20.40
2022-09-13T20:33:58.702Z,20.30
2022-09-13T20:36:04.893Z,20.20
2022-09-13T20:38:07.084Z,20.20
2022-09-13T20:40:09.262Z,20.20
2022-09-13T20:42:11.144Z,20.20
2022-09-13T20:44:13.027Z,20.20
2022-09-13T20:46:15.054Z,20.20
2022-09-13T20:48:17.574Z,20.10
2022-09-13T20:50:20.322Z,20.10
2022-09-13T20:52:21.984Z,20.10
2022-09-13T20:54:23.588Z,20.10
2022-09-13T20:56:25.180Z,20.10
2022-09-13T20:58:27.057Z,20.10
2022-09-13T21:00:28.742Z,20.00
2022-09-13T21:02:30.402Z,20.00
2022-09-13T21:04:32.623Z,20.10
2022-09-13T21:07:01.262Z,20.10
2022-09-13T21:09:03.210Z,20.10
2022-09-13T21:11:05.460Z,20.10
2022-09-13T21:13:09.396Z,20.00
2022-09-13T21:15:11.055Z,20.00
2022-09-13T21:17:12.740Z,20.00
2022-09-13T21:19:14.433Z,20.00
2022-09-13T21:21:17.790Z,20.00
2022-09-13T21:23:19.345Z,20.00
2022-09-13T21:25:20.987Z,20.00
2022-09-13T21:27:22.592Z,19.90
2022-09-13T21:29:24.221Z,19.90
2022-09-13T21:31:27.394Z,19.90
2022-09-13T21:33:29.032Z,19.90
2022-09-13T21:35:30.641Z,19.90
2022-09-13T21:37:32.216Z,19.90
2022-09-13T21:39:33.902Z,19.90
2022-09-13T21:41:35.799Z,19.90
2022-09-13T21:43:37.880Z,19.90
2022-09-13T21:45:40.330Z,19.90
2022-09-13T21:47:42.065Z,19.90
2022-09-13T21:49:45.209Z,19.80
2022-09-13T21:51:48.292Z,19.80
2022-09-13T21:53:57.642Z,19.80
2022-09-13T21:56:00.683Z,19.70
2022-09-13T21:58:03.925Z,19.70
2022-09-13T22:00:06.824Z,19.70
2022-09-13T22:02:08.531Z,19.70
2022-09-13T22:04:13.018Z,19.70
2022-09-13T22:06:15.143Z,19.70
2022-09-13T22:08:16.709Z,19.70
2022-09-13T22:10:18.345Z,19.60
2022-09-13T22:12:21.623Z,19.60
2022-09-13T22:14:23.211Z,19.60
2022-09-13T22:16:31.943Z,19.60
2022-09-13T22:18:33.822Z,19.60
2022-09-13T22:20:35.757Z,19.60
2022-09-13T22:22:37.317Z,19.60
2022-09-13T22:24:38.890Z,19.60
2022-09-13T22:26:40.804Z,19.60
2022-09-13T22:28:42.659Z,19.60
2022-09-13T22:30:44.347Z,19.60
2022-09-13T22:32:45.959Z,19.60
2022-09-13T22:34:47.508Z,19.60
2022-09-13T22:36:49.138Z,19.70
2022-09-13T22:38:54.738Z,19.70
2022-09-13T22:40:57.427Z,19.60
2022-09-13T22:42:58.996Z,19.60
2022-09-13T22:45:00.699Z,19.50
2022-09-13T22:47:02.330Z,19.50
2022-09-13T22:49:04.856Z,19.50
2022-09-13T22:51:07.163Z,19.50
2022-09-13T22:53:08.763Z,19.50
2022-09-13T22:55:10.363Z,19.50
2022-09-13T22:57:12.081Z,19.50
2022-09-13T22:59:14.986Z,19.50
2022-09-13T23:01:17.605Z,19.50
2022-09-13T23:03:19.283Z,19.40
2022-09-13T23:05:21.194Z,19.40
2022-09-13T23:07:23.084Z,19.40
2022-09-13T23:09:24.705Z,19.30
2022-09-13T23:11:26.273Z,19.20
2022-09-13T23:13:27.881Z,19.20
2022-09-13T23:15:29.457Z,19.20
2022-09-13T23:17:31.045Z,19.20
2022-09-13T23:19:32.611Z,19.20
2022-09-13T23:21:35.619Z,19.30
2022-09-13T23:23:37.590Z,19.20
2022-09-13T23:25:39.269Z,19.20
2022-09-13T23:27:40.937Z,19.20
2022-09-13T23:29:42.533Z,19.20
2022-09-13T23:31:44.694Z,19.20
2022-09-13T23:33:48.550Z,19.20
2022-09-13T23:35:56.850Z,19.10
2022-09-13T23:37:58.772Z,19.10
2022-09-13T23:40:01.541Z,19.10
2022-09-13T23:42:04.263Z,19.10
2022-09-13T23:44:05.925Z,19.10
2022-09-13T23:46:07.588Z,19.20
2022-09-13T23:48:09.195Z,19.10
2022-09-13T23:50:10.798Z,19.20
2022-09-13T23:52:12.445Z,19.20
2022-09-13T23:54:14.240Z,19.20
2022-09-13T23:56:16.829Z,19.20
2022-09-13T23:58:18.468Z,19.10
